createdAt,value
2022-10-17T00:00:13.968Z,87.21
2022-10-17T00:02:43.296Z,87.38
2022-10-17T00:05:13.307Z,87.15
2022-10-17T00:07:42.633Z,87.18
2022-10-17T00:10:13.450Z,87.60
2022-10-17T00:12:42.900Z,87.11
2022-10-17T00:15:17.470Z,87.95
2022-10-17T00:17:47.026Z,87.50
2022-10-17T00:20:17.279Z,87.28
2022-10-17T00:22:46.724Z,87.30
2022-10-17T00:25:17.688Z,87.64
2022-10-17T00:27:47.596Z,87.72
2022-10-17T00:30:18.450Z,87.46
2022-10-17T00:32:47.817Z,87.44
2022-10-17T00:35:17.291Z,87.73
2022-10-17T00:37:46.616Z,88.07
2022-10-17T00:40:17.452Z,88.31
2022-10-17T00:42:46.855Z,88.29
2022-10-17T00:45:22.495Z,87.86
2022-10-17T00:47:56.384Z,88.08
2022-10-17T00:51:39.007Z,88.00
2022-10-17T00:54:10.290Z,87.67
2022-10-17T00:56:40.696Z,87.47
2022-10-17T00:59:13.615Z,87.65
2022-10-17T01:01:46.378Z,87.82
2022-10-17T01:04:15.944Z,87.79
2022-10-17T01:06:46.720Z,87.68
2022-10-17T01:09:16.124Z,88.17
2022-10-17T01:11:54.052Z,87.54
2022-10-17T01:14:33.230Z,88.07
2022-10-17T01:17:15.028Z,88.41
2022-10-17T01:20:18.798Z,87.95
2022-10-17T01:23:05.358Z,87.76
2022-10-17T01:25:51.849Z,88.63
2022-10-17T01:31:16.332Z,90.20
2022-10-17T01:33:56.517Z,90.00
2022-10-17T01:36:39.313Z,89.90
2022-10-17T01:39:18.629Z,90.10
2022-10-17T01:41:57.626Z,90.06
2022-10-17T01:44:36.694Z,89.40
2022-10-17T01:47:11.790Z,89.89
2022-10-17T01:49:45.347Z,89.42
2022-10-17T01:52:20.065Z,89.33
2022-10-17T01:54:54.478Z,89.26
2022-10-17T01:57:32.485Z,89.16
2022-10-17T02:00:06.217Z,89.98
2022-10-17T02:02:38.827Z,89.69
2022-10-17T02:05:09.795Z,89.39
2022-10-17T02:07:39.167Z,91.27
2022-10-17T02:10:15.654Z,90.80
2022-10-17T02:12:55.704Z,90.19
2022-10-17T02:15:48.709Z,90.35
2022-10-17T02:18:46.325Z,90.25
2022-10-17T02:21:22.249Z,90.22
2022-10-17T02:24:00.979Z,90.58
2022-10-17T02:26:35.570Z,90.46
2022-10-17T02:29:11.606Z,90.18
2022-10-17T02:31:47.274Z,90.26
2022-10-17T02:34:24.330Z,91.52
2022-10-17T02:36:59.452Z,91.74
2022-10-17T02:39:30.993Z,92.66
2022-10-17T02:42:03.877Z,92.78
2022-10-17T02:44:34.999Z,92.52
2022-10-17T02:47:12.885Z,95.34
2022-10-17T02:49:49.208Z,94.50
2022-10-17T02:52:24.174Z,95.80
2022-10-17T02:54:59.865Z,95.35
2022-10-17T02:57:37.658Z,95.09
2022-10-17T03:00:11.818Z,95.18
2022-10-17T03:02:43.125Z,94.61
2022-10-17T03:05:18.558Z,94.97
2022-10-17T03:07:48.052Z,94.85
2022-10-17T03:10:17.710Z,95.01
2022-10-17T03:12:47.295Z,94.67
2022-10-17T03:15:17.185Z,94.61
2022-10-17T03:20:22.084Z,95.34
2022-10-17T03:22:51.328Z,94.74
2022-10-17T03:25:20.855Z,94.80
2022-10-17T03:27:50.371Z,94.09
2022-10-17T03:30:19.754Z,93.83
2022-10-17T03:32:49.003Z,93.21
2022-10-17T03:35:18.590Z,93.61
2022-10-17T03:37:49.309Z,93.49
2022-10-17T03:40:18.937Z,93.69
2022-10-17T03:42:48.316Z,93.04
2022-10-17T03:45:17.797Z,93.06
2022-10-17T03:47:47.209Z,92.96
2022-10-17T03:52:34.275Z,93.86
2022-10-17T03:55:03.535Z,93.68
2022-10-17T03:57:33.001Z,94.40
2022-10-17T04:00:02.345Z,94.80
2022-10-17T04:02:31.754Z,94.64
2022-10-17T04:05:01.127Z,94.38
2022-10-17T04:07:30.772Z,94.47
2022-10-17T04:10:01.587Z,94.19
2022-10-17T04:12:31.418Z,94.38
2022-10-17T04:15:01.108Z,95.23
2022-10-17T04:17:37.222Z,95.82
2022-10-17T04:20:09.427Z,95.38
2022-10-17T04:22:38.853Z,94.82
2022-10-17T04:25:10.987Z,94.94
2022-10-17T04:27:40.251Z,94.41
2022-10-17T04:30:11.067Z,94.29
2022-10-17T04:32:40.892Z,94.51
2022-10-17T04:35:11.306Z,94.00
2022-10-17T04:37:40.626Z,95.30
2022-10-17T04:40:13.346Z,94.75
2022-10-17T04:42:42.753Z,95.60
2022-10-17T04:45:12.953Z,95.41
2022-10-17T04:47:42.287Z,95.25
2022-10-17T04:50:12.093Z,95.49
2022-10-17T04:52:41.466Z,95.56
2022-10-17T04:55:12.249Z,95.20
2022-10-17T04:57:41.642Z,96.44
2022-10-17T05:00:12.925Z,96.09
2022-10-17T05:02:42.279Z,95.78
2022-10-17T05:05:11.952Z,96.00
2022-10-17T05:07:42.590Z,96.49
2022-10-17T05:10:13.367Z,97.21
2022-10-17T05:12:42.871Z,97.79
2022-10-17T05:15:12.711Z,96.85
2022-10-17T05:17:42.008Z,96.42
2022-10-17T05:20:13.364Z,96.96
2022-10-17T05:22:42.829Z,97.49
2022-10-17T05:25:13.695Z,97.18
2022-10-17T05:27:43.066Z,97.83
2022-10-17T05:30:13.204Z,97.73
2022-10-17T05:32:42.622Z,97.31
2022-10-17T05:35:11.982Z,97.11
2022-10-17T05:37:41.465Z,98.09
2022-10-17T05:40:13.967Z,98.41
2022-10-17T05:42:48.908Z,98.99
2022-10-17T05:45:18.918Z,99.94
2022-10-17T05:47:48.240Z,99.99
2022-10-17T05:50:17.632Z,100.00
2022-10-17T05:52:47.335Z,99.32
2022-10-17T05:55:18.306Z,98.51
2022-10-17T05:57:47.729Z,98.27
2022-10-17T06:00:17.509Z,98.39
2022-10-17T06:02:47.250Z,97.93
2022-10-17T06:05:17.424Z,97.52
2022-10-17T06:07:46.754Z,95.73
2022-10-17T06:10:18.829Z,93.80
2022-10-17T06:12:48.268Z,92.49
2022-10-17T06:15:17.711Z,91.97
2022-10-17T06:17:47.309Z,91.27
2022-10-17T06:20:16.951Z,91.14
2022-10-17T06:22:46.441Z,91.12
2022-10-17T06:25:17.528Z,87.82
2022-10-17T06:27:46.882Z,86.19
2022-10-17T06:30:16.476Z,85.71
2022-10-17T06:32:45.791Z,85.90
2022-10-17T06:35:15.353Z,85.71
2022-10-17T06:37:45.225Z,85.60
2022-10-17T06:40:17.470Z,84.80
2022-10-17T06:42:46.851Z,84.15
2022-10-17T06:45:16.711Z,83.13
2022-10-17T06:47:46.155Z,81.55
2022-10-17T06:52:33.968Z,78.92
2022-10-17T06:57:37.533Z,78.23
2022-10-17T07:00:08.593Z,76.98
2022-10-17T07:02:37.885Z,76.30
2022-10-17T07:05:08.275Z,74.29
2022-10-17T07:07:43.037Z,73.50
2022-10-17T07:10:14.473Z,73.49
2022-10-17T07:12:44.986Z,71.40
2022-10-17T07:15:14.675Z,69.40
2022-10-17T07:17:44.067Z,69.79
2022-10-17T07:20:13.853Z,69.11
2022-10-17T07:22:44.773Z,69.31
2022-10-17T07:25:14.247Z,69.08
2022-10-17T07:27:43.461Z,65.42
2022-10-17T07:30:14.330Z,67.19
2022-10-17T07:32:44.993Z,67.41
2022-10-17T07:35:15.542Z,66.53
2022-10-17T07:37:46.293Z,65.55
2022-10-17T07:40:15.877Z,65.61
2022-10-17T07:42:45.270Z,62.98
2022-10-17T07:45:15.854Z,63.38
2022-10-17T07:47:45.586Z,62.12
2022-10-17T07:50:14.930Z,59.59
2022-10-17T07:52:45.844Z,60.72
2022-10-17T07:55:15.388Z,59.03
2022-10-17T07:57:44.746Z,59.43
2022-10-17T08:00:15.170Z,59.52
2022-10-17T08:02:45.165Z,59.83
2022-10-17T08:05:14.534Z,58.81
2022-10-17T08:07:45.360Z,58.94
2022-10-17T08:10:16.990Z,58.33
2022-10-17T08:12:46.393Z,57.19
2022-10-17T08:15:15.709Z,56.16
2022-10-17T08:17:45.188Z,56.80
2022-10-17T08:20:15.115Z,56.28
2022-10-17T08:22:48.708Z,56.06
2022-10-17T08:25:18.208Z,53.86
2022-10-17T08:27:47.655Z,54.72
2022-10-17T08:30:17.711Z,55.37
2022-10-17T08:32:46.990Z,54.02
2022-10-17T08:35:16.332Z,54.84
2022-10-17T08:37:47.115Z,54.43
2022-10-17T08:40:22.480Z,54.30
2022-10-17T08:43:21.447Z,54.56
2022-10-17T08:46:00.473Z,53.64
2022-10-17T08:48:33.396Z,53.24
2022-10-17T08:51:08.841Z,52.58
2022-10-17T08:53:48.221Z,52.68
2022-10-17T08:56:44.071Z,53.48
2022-10-17T08:59:15.544Z,53.01
2022-10-17T09:01:53.904Z,53.33
2022-10-17T09:04:56.495Z,53.40
2022-10-17T09:07:35.159Z,53.89
2022-10-17T09:10:18.905Z,54.39
2022-10-17T09:13:06.973Z,53.51
2022-10-17T09:16:09.125Z,53.21
2022-10-17T09:18:41.952Z,54.62
2022-10-17T09:21:22.774Z,53.88
2022-10-17T09:24:03.967Z,53.48
2022-10-17T09:26:43.021Z,54.43
2022-10-17T09:29:22.562Z,54.63
2022-10-17T09:32:02.036Z,54.67
2022-10-17T09:34:33.931Z,54.18
2022-10-17T09:37:07.727Z,52.81
2022-10-17T09:39:37.311Z,52.93
2022-10-17T09:42:08.168Z,55.08
2022-10-17T09:44:47.774Z,53.75
2022-10-17T09:47:31.409Z,51.60
2022-10-17T09:52:38.137Z,53.42
2022-10-17T09:55:18.749Z,53.68
2022-10-17T09:57:57.967Z,53.82
2022-10-17T10:00:31.036Z,53.71
2022-10-17T10:03:19.088Z,54.12
2022-10-17T10:06:03.969Z,54.34
2022-10-17T10:08:37.754Z,54.78
2022-10-17T10:11:13.860Z,54.65
2022-10-17T10:13:51.088Z,53.67
2022-10-17T10:16:25.620Z,54.01
2022-10-17T10:18:55.215Z,53.71
2022-10-17T10:21:26.903Z,54.86
2022-10-17T10:24:15.852Z,54.21
2022-10-17T10:26:49.593Z,53.89
2022-10-17T10:29:34.340Z,54.38
2022-10-17T10:32:13.912Z,53.30
2022-10-17T10:34:52.028Z,53.30
2022-10-17T10:37:24.308Z,54.32
2022-10-17T10:39:57.658Z,51.20
2022-10-17T10:42:31.515Z,53.64
2022-10-17T10:45:05.614Z,54.38
2022-10-17T10:47:35.634Z,52.26
2022-10-17T10:50:26.367Z,52.89
2022-10-17T10:53:13.381Z,52.83
2022-10-17T10:55:48.467Z,52.79
2022-10-17T10:58:32.713Z,53.35
2022-10-17T11:01:10.842Z,54.05
2022-10-17T11:03:53.053Z,52.53
2022-10-17T11:06:27.903Z,53.12
2022-10-17T11:09:19.967Z,53.43
2022-10-17T11:12:00.921Z,52.90
2022-10-17T11:14:43.460Z,52.89
2022-10-17T11:17:20.969Z,52.04
2022-10-17T11:20:15.310Z,51.59
2022-10-17T11:22:49.553Z,52.11
2022-10-17T11:25:37.194Z,50.06
2022-10-17T11:28:16.554Z,51.45
2022-10-17T11:30:53.387Z,50.79
2022-10-17T11:33:32.850Z,49.99
2022-10-17T11:36:07.546Z,48.83
2022-10-17T11:38:49.251Z,50.70
2022-10-17T11:41:24.847Z,49.10
2022-10-17T11:44:00.820Z,48.17
2022-10-17T11:46:31.738Z,49.52
2022-10-17T11:49:16.124Z,48.13
2022-10-17T11:52:07.455Z,49.95
2022-10-17T11:54:43.167Z,49.73
2022-10-17T11:57:37.607Z,49.78
2022-10-17T12:00:39.319Z,50.76
2022-10-17T12:03:41.512Z,51.18
2022-10-17T12:06:22.932Z,50.62
2022-10-17T12:09:13.827Z,52.19
2022-10-17T12:11:54.254Z,52.27
2022-10-17T12:14:45.407Z,52.38
2022-10-17T12:17:35.143Z,52.35
2022-10-17T12:20:30.722Z,51.98
2022-10-17T12:23:20.222Z,51.70
2022-10-17T12:25:57.091Z,51.62
2022-10-17T12:28:33.499Z,53.20
2022-10-17T12:31:07.352Z,52.13
2022-10-17T12:33:51.627Z,52.47
2022-10-17T12:36:48.437Z,51.89
2022-10-17T12:39:51.872Z,51.35
2022-10-17T12:42:48.966Z,51.97
2022-10-17T12:45:53.151Z,51.85
2022-10-17T12:53:06.688Z,51.48
2022-10-17T12:55:36.010Z,52.11
2022-10-17T12:58:08.430Z,51.42
2022-10-17T13:00:59.448Z,53.07
2022-10-17T13:03:42.052Z,52.65
2022-10-17T13:06:22.263Z,53.01
2022-10-17T13:09:03.509Z,54.20
2022-10-17T13:11:37.424Z,54.56
2022-10-17T13:14:15.391Z,54.40
2022-10-17T13:16:56.372Z,54.39
2022-10-17T13:19:30.892Z,54.31
2022-10-17T13:22:06.723Z,55.73
2022-10-17T13:24:40.294Z,54.69
2022-10-17T13:27:27.916Z,55.22
2022-10-17T13:29:59.154Z,55.58
2022-10-17T13:32:37.951Z,55.51
2022-10-17T13:35:10.210Z,56.04
2022-10-17T13:37:41.871Z,56.23
2022-10-17T13:43:18.180Z,55.96
2022-10-17T13:45:52.053Z,56.51
2022-10-17T13:48:25.171Z,56.36
2022-10-17T13:51:01.735Z,56.99
2022-10-17T13:53:35.531Z,57.42
2022-10-17T13:56:32.908Z,58.59
2022-10-17T13:59:23.244Z,59.39
2022-10-17T14:01:52.947Z,58.89
2022-10-17T14:04:22.290Z,59.63
2022-10-17T14:06:52.524Z,60.16
2022-10-17T14:09:26.493Z,60.53
2022-10-17T14:12:05.068Z,60.19
2022-10-17T14:14:58.120Z,60.22
2022-10-17T14:17:30.403Z,60.86
2022-10-17T14:20:40.450Z,61.18
2022-10-17T14:23:20.839Z,61.85
2022-10-17T14:25:43.900Z,62.38
2022-10-17T14:28:18.695Z,62.69
2022-10-17T14:30:56.647Z,63.04
2022-10-17T14:33:31.264Z,63.06
2022-10-17T14:36:06.484Z,62.61
2022-10-17T14:38:36.545Z,63.03
2022-10-17T14:44:25.267Z,63.29
2022-10-17T14:47:05.990Z,62.92
2022-10-17T14:49:43.365Z,63.42
2022-10-17T14:52:27.296Z,63.95
2022-10-17T14:54:57.993Z,64.06
2022-10-17T14:57:45.443Z,64.37
2022-10-17T15:00:20.878Z,64.61
2022-10-17T15:02:52.313Z,65.11
2022-10-17T15:05:23.291Z,66.27
2022-10-17T15:07:52.806Z,66.47
2022-10-17T15:10:35.084Z,67.09
2022-10-17T15:15:56.386Z,67.73
2022-10-17T15:18:25.689Z,68.09
2022-10-17T15:21:04.633Z,68.58
2022-10-17T15:23:34.494Z,68.87
2022-10-17T15:26:03.924Z,69.32
2022-10-17T15:28:33.255Z,69.79
2022-10-17T15:31:04.086Z,70.39
2022-10-17T15:33:33.405Z,71.49
2022-10-17T15:36:02.709Z,71.72
2022-10-17T15:38:32.011Z,72.30
2022-10-17T15:41:01.304Z,72.82
2022-10-17T15:43:30.667Z,73.17
2022-10-17T15:46:04.026Z,73.41
2022-10-17T15:48:34.471Z,74.08
2022-10-17T15:52:33.957Z,74.29
2022-10-17T15:55:05.374Z,75.28
2022-10-17T15:57:40.264Z,75.30
2022-10-17T16:00:17.911Z,76.17
2022-10-17T16:02:48.007Z,76.96
2022-10-17T16:05:19.737Z,77.11
2022-10-17T16:07:50.609Z,77.31
2022-10-17T16:10:20.985Z,77.40
2022-10-17T16:12:50.677Z,78.00
2022-10-17T16:15:23.749Z,78.07
2022-10-17T16:17:54.270Z,77.93
2022-10-17T16:20:25.635Z,78.49
2022-10-17T16:23:00.627Z,78.35
2022-10-17T16:25:31.811Z,79.18
2022-10-17T16:28:03.047Z,79.05
2022-10-17T16:30:33.915Z,80.25
2022-10-17T16:33:03.212Z,79.76
2022-10-17T16:35:36.576Z,80.42
2022-10-17T16:38:09.648Z,80.97
2022-10-17T16:40:41.466Z,81.16
2022-10-17T16:43:14.459Z,81.00
2022-10-17T16:45:43.920Z,81.44
2022-10-17T16:48:13.405Z,81.05
2022-10-17T16:50:43.143Z,81.20
2022-10-17T16:53:13.816Z,81.21
2022-10-17T16:55:43.307Z,81.12
2022-10-17T16:58:12.768Z,81.44
2022-10-17T17:00:42.210Z,81.43
2022-10-17T17:03:11.515Z,81.42
2022-10-17T17:05:41.048Z,81.92
2022-10-17T17:08:12.569Z,82.82
2022-10-17T17:10:49.589Z,83.37
2022-10-17T17:13:19.767Z,84.65
2022-10-17T17:15:53.757Z,85.30
2022-10-17T17:18:23.264Z,85.67
2022-10-17T17:20:52.488Z,86.56
2022-10-17T17:23:21.729Z,86.72
2022-10-17T17:25:57.671Z,87.79
2022-10-17T17:28:27.565Z,86.73
2022-10-17T17:30:57.668Z,86.65
2022-10-17T17:33:28.582Z,86.14
2022-10-17T17:35:59.004Z,86.14
2022-10-17T17:38:29.992Z,85.88
2022-10-17T17:41:00.865Z,85.68
2022-10-17T17:43:31.067Z,85.71
2022-10-17T17:46:03.687Z,85.84
2022-10-17T17:48:33.027Z,85.80
2022-10-17T17:51:06.045Z,85.50
2022-10-17T17:53:36.035Z,86.06
2022-10-17T17:56:10.252Z,85.97
2022-10-17T17:58:39.909Z,85.70
2022-10-17T18:01:15.066Z,85.71
2022-10-17T18:03:44.683Z,85.63
2022-10-17T18:06:14.590Z,85.62
2022-10-17T18:08:47.790Z,86.75
2022-10-17T18:11:21.247Z,86.25
2022-10-17T18:13:56.738Z,87.25
2022-10-17T18:16:26.848Z,86.78
2022-10-17T18:18:56.509Z,87.18
2022-10-17T18:21:25.992Z,87.30
2022-10-17T18:23:55.264Z,86.88
2022-10-17T18:26:26.043Z,87.19
2022-10-17T18:28:55.492Z,87.28
2022-10-17T18:31:28.709Z,87.49
2022-10-17T18:34:00.292Z,87.68
2022-10-17T18:36:31.343Z,87.66
2022-10-17T18:39:02.566Z,87.80
2022-10-17T18:41:34.767Z,87.88
2022-10-17T18:44:04.872Z,87.84
2022-10-17T18:46:40.767Z,88.30
2022-10-17T18:52:33.643Z,88.32
2022-10-17T18:55:02.987Z,88.28
2022-10-17T18:57:32.545Z,87.73
2022-10-17T19:00:02.047Z,87.45
2022-10-17T19:02:35.532Z,87.22
2022-10-17T19:05:08.108Z,87.02
2022-10-17T19:07:38.976Z,86.89
2022-10-17T19:10:09.303Z,87.18
2022-10-17T19:12:38.503Z,87.57
2022-10-17T19:15:09.188Z,87.33
2022-10-17T19:17:38.428Z,87.56
2022-10-17T19:20:09.790Z,87.04
2022-10-17T19:22:40.501Z,87.21
2022-10-17T19:25:11.012Z,87.20
2022-10-17T19:27:40.367Z,87.53
2022-10-17T19:30:12.829Z,86.86
2022-10-17T19:32:42.311Z,87.42
2022-10-17T19:35:12.636Z,86.91
2022-10-17T19:37:43.352Z,87.20
2022-10-17T19:40:14.589Z,87.13
2022-10-17T19:42:44.084Z,87.92
2022-10-17T19:45:13.574Z,87.48
2022-10-17T19:47:43.191Z,87.76
2022-10-17T19:50:12.726Z,88.04
2022-10-17T19:52:43.571Z,87.98
2022-10-17T19:55:13.052Z,88.06
2022-10-17T19:57:42.381Z,87.84
2022-10-17T20:00:13.350Z,87.84
2022-10-17T20:02:42.626Z,88.02
2022-10-17T20:05:18.641Z,87.92
2022-10-17T20:07:49.753Z,87.55
2022-10-17T20:10:19.927Z,88.64
2022-10-17T20:12:49.248Z,88.54
2022-10-17T20:15:18.848Z,88.79
2022-10-17T20:17:48.147Z,88.76
2022-10-17T20:20:17.649Z,88.82
2022-10-17T20:22:49.290Z,89.38
2022-10-17T20:25:19.131Z,89.37
2022-10-17T20:27:50.055Z,89.61
2022-10-17T20:30:19.536Z,88.93
2022-10-17T20:32:48.863Z,89.57
2022-10-17T20:35:18.324Z,89.87
2022-10-17T20:37:49.207Z,89.96
2022-10-17T20:40:35.707Z,90.02
2022-10-17T20:43:06.871Z,89.21
2022-10-17T20:45:50.596Z,89.52
2022-10-17T20:48:21.542Z,89.28
2022-10-17T20:50:51.648Z,89.04
2022-10-17T20:53:38.210Z,89.02
2022-10-17T20:56:10.224Z,89.77
2022-10-17T20:58:39.767Z,89.02
2022-10-17T21:01:10.569Z,88.86
2022-10-17T21:03:43.878Z,88.79
2022-10-17T21:06:18.331Z,88.88
2022-10-17T21:08:50.326Z,88.93
2022-10-17T21:11:21.909Z,88.63
2022-10-17T21:13:58.370Z,88.79
2022-10-17T21:16:28.898Z,88.49
2022-10-17T21:18:59.125Z,88.71
2022-10-17T21:21:31.266Z,88.69
2022-10-17T21:24:04.085Z,88.79
2022-10-17T21:26:34.734Z,89.59
2022-10-17T21:29:06.044Z,88.84
2022-10-17T21:31:37.427Z,88.97
2022-10-17T21:34:10.085Z,89.04
2022-10-17T21:36:40.466Z,88.92
2022-10-17T21:39:12.633Z,88.09
2022-10-17T21:41:42.945Z,88.83
2022-10-17T21:44:16.244Z,89.06
2022-10-17T21:46:46.286Z,89.23
2022-10-17T21:52:33.757Z,88.71
2022-10-17T21:55:03.268Z,88.87
2022-10-17T21:57:32.548Z,88.56
2022-10-17T22:00:01.765Z,88.14
2022-10-17T22:02:31.684Z,88.48
2022-10-17T22:05:01.327Z,88.47
2022-10-17T22:07:30.549Z,88.28
2022-10-17T22:10:01.367Z,87.79
2022-10-17T22:12:30.966Z,88.39
2022-10-17T22:15:00.605Z,88.46
2022-10-17T22:17:30.354Z,88.42
2022-10-17T22:19:59.769Z,88.36
2022-10-17T22:22:29.044Z,88.71
2022-10-17T22:24:59.861Z,88.13
2022-10-17T22:27:29.489Z,88.70
2022-10-17T22:29:59.149Z,88.68
2022-10-17T22:32:28.421Z,88.97
2022-10-17T22:34:57.743Z,89.01
2022-10-17T22:37:26.979Z,88.95
2022-10-17T22:39:56.445Z,88.97
2022-10-17T22:42:31.714Z,89.66
2022-10-17T22:45:01.163Z,89.36
2022-10-17T22:47:31.958Z,89.23
2022-10-17T22:50:01.579Z,89.04
2022-10-17T22:52:31.253Z,89.99
2022-10-17T22:55:00.694Z,89.85
2022-10-17T22:57:31.628Z,89.68
2022-10-17T23:00:01.576Z,89.17
2022-10-17T23:02:31.133Z,88.77
2022-10-17T23:05:01.170Z,89.11
2022-10-17T23:07:30.847Z,88.92
2022-10-17T23:10:00.126Z,88.78
2022-10-17T23:12:31.088Z,88.87
2022-10-17T23:15:00.574Z,88.47
2022-10-17T23:17:29.847Z,88.27
2022-10-17T23:19:59.306Z,88.41
2022-10-17T23:22:28.923Z,88.51
2022-10-17T23:24:58.304Z,89.16
2022-10-17T23:27:27.573Z,89.02
2022-10-17T23:29:58.409Z,88.61
2022-10-17T23:32:28.147Z,88.33
2022-10-17T23:34:57.629Z,88.95
2022-10-17T23:37:27.182Z,88.58
2022-10-17T23:39:56.484Z,89.01
2022-10-17T23:42:26.087Z,88.74
2022-10-17T23:44:57.127Z,88.92
2022-10-17T23:47:26.654Z,89.01
2022-10-17T23:49:55.952Z,88.76
2022-10-17T23:52:25.586Z,89.30
2022-10-17T23:54:55.004Z,88.97
2022-10-17T23:57:24.766Z,88.92
2022-10-17T23:59:54.083Z,88.85
